createdAt,value
2022-09-13T00:01:55.486Z,3.13
2022-09-13T00:04:23.361Z,2.83
2022-09-13T00:06:50.714Z,3.00
2022-09-13T00:09:22.039Z,3.40
2022-09-13T00:11:49.362Z,3.17
2022-09-13T00:14:16.912Z,3.13
2022-09-13T00:16:44.579Z,2.97
2022-09-13T00:19:12.360Z,3.08
2022-09-13T00:21:39.822Z,3.17
2022-09-13T00:24:07.096Z,2.88
2022-09-13T00:26:34.461Z,3.20
2022-09-13T00:29:01.901Z,3.50
2022-09-13T00:31:29.649Z,3.72
2022-09-13T00:34:00.120Z,3.30
2022-09-13T00:36:28.366Z,2.97
2022-09-13T00:38:55.571Z,3.03
2022-09-13T00:41:22.884Z,2.65
2022-09-13T00:43:53.038Z,3.60
2022-09-13T00:46:47.245Z,2.67
2022-09-13T00:49:22.430Z,2.90
2022-09-13T00:51:54.624Z,3.28
2022-09-13T00:54:27.286Z,3.13
2022-09-13T00:56:58.376Z,2.70
2022-09-13T00:59:31.115Z,2.63
2022-09-13T01:02:00.555Z,2.83
2022-09-13T01:04:29.789Z,3.15
2022-09-13T01:07:01.164Z,3.13
2022-09-13T01:09:29.732Z,2.85
2022-09-13T01:12:10.108Z,3.00
2022-09-13T01:14:38.223Z,2.97
2022-09-13T01:17:05.808Z,3.25
2022-09-13T01:19:33.154Z,3.95
2022-09-13T01:22:28.938Z,3.00
2022-09-13T01:25:28.248Z,4.00
2022-09-13T01:28:12.775Z,3.30
2022-09-13T01:30:58.799Z,3.60
2022-09-13T01:33:40.853Z,4.07
2022-09-13T01:36:46.313Z,3.28
2022-09-13T01:39:49.191Z,3.30
2022-09-13T01:42:41.737Z,3.17
2022-09-13T01:45:36.718Z,3.60
2022-09-13T01:48:21.097Z,3.20
2022-09-13T01:51:00.653Z,3.97
2022-09-13T01:53:55.751Z,3.17
2022-09-13T01:56:43.815Z,3.90
2022-09-13T01:59:29.199Z,3.45
2022-09-13T02:02:03.403Z,3.33
2022-09-13T02:04:37.635Z,3.08
2022-09-13T02:07:14.814Z,3.90
2022-09-13T02:09:46.816Z,3.88
2022-09-13T02:12:19.821Z,3.13
2022-09-13T02:14:56.661Z,3.15
2022-09-13T02:17:26.227Z,2.97
2022-09-13T02:20:00.947Z,3.75
2022-09-13T02:22:39.234Z,3.60
2022-09-13T02:25:10.630Z,3.30
2022-09-13T02:27:41.084Z,2.63
2022-09-13T02:30:11.026Z,3.25
2022-09-13T02:32:54.876Z,3.17
2022-09-13T02:35:36.664Z,3.28
2022-09-13T02:38:23.626Z,2.97
2022-09-13T02:41:00.630Z,3.28
2022-09-13T02:43:53.135Z,3.10
2022-09-13T02:46:26.102Z,3.53
2022-09-13T02:49:13.822Z,3.47
2022-09-13T02:52:01.348Z,3.05
2022-09-13T02:54:44.801Z,3.03
2022-09-13T02:57:26.097Z,2.95
2022-09-13T02:59:53.336Z,3.40
2022-09-13T03:02:25.363Z,2.80
2022-09-13T03:04:52.945Z,3.05
2022-09-13T03:07:20.208Z,2.90
2022-09-13T03:09:54.009Z,3.33
2022-09-13T03:12:36.263Z,3.00
2022-09-13T03:15:51.068Z,2.85
2022-09-13T03:18:57.739Z,3.35
2022-09-13T03:21:55.309Z,2.80
2022-09-13T03:24:50.155Z,3.13
2022-09-13T03:27:35.873Z,2.88
2022-09-13T03:30:06.679Z,3.30
2022-09-13T03:32:33.886Z,3.28
2022-09-13T03:35:26.335Z,3.42
2022-09-13T03:38:08.160Z,3.33
2022-09-13T03:41:09.789Z,3.05
2022-09-13T03:43:45.700Z,3.13
2022-09-13T03:46:22.824Z,3.17
2022-09-13T03:48:51.452Z,3.72
2022-09-13T03:51:18.802Z,3.20
2022-09-13T03:53:53.084Z,3.17
2022-09-13T03:56:20.923Z,3.03
2022-09-13T03:58:49.723Z,3.42
2022-09-13T04:01:23.457Z,3.10
2022-09-13T04:03:55.802Z,2.75
2022-09-13T04:06:23.951Z,3.50
2022-09-13T04:08:51.500Z,3.22
2022-09-13T04:11:21.236Z,3.17
2022-09-13T04:13:48.475Z,3.42
2022-09-13T04:16:15.818Z,2.72
2022-09-13T04:18:43.022Z,3.65
2022-09-13T04:21:10.206Z,2.53
2022-09-13T04:23:38.236Z,3.33
2022-09-13T04:26:06.240Z,3.30
2022-09-13T04:28:33.502Z,2.78
2022-09-13T04:31:00.828Z,3.47
2022-09-13T04:33:28.106Z,3.33
2022-09-13T04:35:59.489Z,3.45
2022-09-13T04:38:27.523Z,3.42
2022-09-13T04:40:55.798Z,2.97
2022-09-13T04:43:23.607Z,2.85
2022-09-13T04:45:50.969Z,3.58
2022-09-13T04:48:18.271Z,3.38
2022-09-13T04:50:45.652Z,3.08
2022-09-13T04:53:13.898Z,2.95
2022-09-13T04:55:41.255Z,3.17
2022-09-13T04:58:08.462Z,3.47
2022-09-13T05:00:36.150Z,3.05
2022-09-13T05:03:03.409Z,3.72
2022-09-13T05:05:32.298Z,2.97
2022-09-13T05:07:59.541Z,3.38
2022-09-13T05:10:26.800Z,3.53
2022-09-13T05:12:53.966Z,3.50
2022-09-13T05:15:21.139Z,3.45
2022-09-13T05:17:48.319Z,3.63
2022-09-13T05:20:16.038Z,3.10
2022-09-13T05:22:43.320Z,3.28
2022-09-13T05:25:10.544Z,3.40
2022-09-13T05:27:37.859Z,3.30
2022-09-13T05:30:05.835Z,3.50
2022-09-13T05:32:33.102Z,3.92
2022-09-13T05:35:00.332Z,3.85
2022-09-13T05:37:27.659Z,4.03
2022-09-13T05:40:10.728Z,3.97
2022-09-13T05:42:39.146Z,4.05
2022-09-13T05:45:07.287Z,3.70
2022-09-13T05:47:34.735Z,3.67
2022-09-13T05:50:11.017Z,3.78
2022-09-13T05:52:55.879Z,3.60
2022-09-13T05:55:23.988Z,3.65
2022-09-13T05:57:51.467Z,3.63
2022-09-13T06:00:19.159Z,3.97
2022-09-13T06:02:47.483Z,4.00
2022-09-13T06:05:15.222Z,3.75
2022-09-13T06:07:47.370Z,3.63
2022-09-13T06:10:24.249Z,3.58
2022-09-13T06:12:51.899Z,3.50
2022-09-13T06:15:22.517Z,3.75
2022-09-13T06:17:49.677Z,3.55
2022-09-13T06:20:17.006Z,3.70
2022-09-13T06:22:44.256Z,3.72
2022-09-13T06:25:11.508Z,3.72
2022-09-13T06:27:38.712Z,3.50
2022-09-13T06:30:08.780Z,3.13
2022-09-13T06:32:36.067Z,3.80
2022-09-13T06:35:03.453Z,3.15
2022-09-13T06:37:30.667Z,3.70
2022-09-13T06:39:57.942Z,3.70
2022-09-13T06:42:25.259Z,3.13
2022-09-13T06:44:52.472Z,3.28
2022-09-13T06:47:19.628Z,3.60
2022-09-13T06:49:46.779Z,3.08
2022-09-13T06:52:14.008Z,3.65
2022-09-13T06:54:41.203Z,3.25
2022-09-13T06:57:08.419Z,3.60
2022-09-13T06:59:35.775Z,3.67
2022-09-13T07:02:03.146Z,2.97
2022-09-13T07:04:33.323Z,3.25
2022-09-13T07:07:00.562Z,3.20
2022-09-13T07:09:28.049Z,2.83
2022-09-13T07:11:56.342Z,3.65
2022-09-13T07:14:26.065Z,3.33
2022-09-13T07:16:53.862Z,3.08
2022-09-13T07:19:29.070Z,2.72
2022-09-13T07:21:57.637Z,3.08
2022-09-13T07:24:25.888Z,3.53
2022-09-13T07:26:53.387Z,3.85
2022-09-13T07:29:23.614Z,3.08
2022-09-13T07:31:54.114Z,3.20
2022-09-13T07:34:23.481Z,3.60
2022-09-13T07:36:52.434Z,3.38
2022-09-13T07:39:22.662Z,3.10
2022-09-13T07:41:51.369Z,3.05
2022-09-13T07:44:18.712Z,3.08
2022-09-13T07:46:45.980Z,3.20
2022-09-13T07:49:16.468Z,3.00
2022-09-13T07:51:45.083Z,3.38
2022-09-13T07:54:18.100Z,3.47
2022-09-13T07:56:45.749Z,4.03
2022-09-13T07:59:15.278Z,3.10
2022-09-13T08:01:47.555Z,3.10
2022-09-13T08:04:21.495Z,3.00
2022-09-13T08:06:48.965Z,3.20
2022-09-13T08:09:16.952Z,3.15
2022-09-13T08:11:52.940Z,3.20
2022-09-13T08:14:22.807Z,3.65
2022-09-13T08:16:50.417Z,4.57
2022-09-13T08:19:19.204Z,3.60
2022-09-13T08:21:47.039Z,3.63
2022-09-13T08:24:17.220Z,3.42
2022-09-13T08:26:44.793Z,3.42
2022-09-13T08:29:13.259Z,3.30
2022-09-13T08:31:40.460Z,3.38
2022-09-13T08:34:11.679Z,3.15
2022-09-13T08:36:41.039Z,2.95
2022-09-13T08:39:09.983Z,3.03
2022-09-13T08:41:40.268Z,2.97
2022-09-13T08:44:13.533Z,3.88
2022-09-13T08:46:47.005Z,3.33
2022-09-13T08:49:25.950Z,3.30
2022-09-13T08:52:20.458Z,3.15
2022-09-13T08:54:49.255Z,3.10
2022-09-13T08:57:25.916Z,3.35
2022-09-13T09:00:05.632Z,2.67
2022-09-13T09:02:58.628Z,3.08
2022-09-13T09:05:29.052Z,2.80
2022-09-13T09:08:10.621Z,3.10
2022-09-13T09:10:42.722Z,3.05
2022-09-13T09:13:34.228Z,2.55
2022-09-13T09:16:27.273Z,2.60
2022-09-13T09:18:56.049Z,2.90
2022-09-13T09:21:23.352Z,2.60
2022-09-13T09:23:53.159Z,2.58
2022-09-13T09:26:21.659Z,1.75
2022-09-13T09:29:05.641Z,1.92
2022-09-13T09:32:24.415Z,2.55
2022-09-13T09:35:12.658Z,2.30
2022-09-13T09:37:42.300Z,1.90
2022-09-13T09:40:14.214Z,2.28
2022-09-13T09:42:47.863Z,2.95
2022-09-13T09:45:26.728Z,1.60
2022-09-13T09:47:55.473Z,2.20
2022-09-13T09:50:30.005Z,2.00
2022-09-13T09:53:03.396Z,1.70
2022-09-13T09:55:34.866Z,2.50
2022-09-13T09:58:08.504Z,2.20
2022-09-13T10:00:50.646Z,2.58
2022-09-13T10:03:20.820Z,2.60
2022-09-13T10:05:48.872Z,2.50
2022-09-13T10:08:35.376Z,2.10
2022-09-13T10:11:03.610Z,1.95
2022-09-13T10:13:32.100Z,1.83
2022-09-13T10:16:00.673Z,1.80
2022-09-13T10:18:45.638Z,1.42
2022-09-13T10:21:19.071Z,1.77
2022-09-13T10:23:50.746Z,1.50
2022-09-13T10:26:23.308Z,2.00
2022-09-13T10:29:02.987Z,2.10
2022-09-13T10:31:36.859Z,1.92
2022-09-13T10:34:27.800Z,1.95
2022-09-13T10:37:01.337Z,1.75
2022-09-13T10:39:32.818Z,1.65
2022-09-13T10:42:11.180Z,2.15
2022-09-13T10:45:03.738Z,1.85
2022-09-13T10:47:43.595Z,1.90
2022-09-13T10:50:27.845Z,1.85
2022-09-13T10:52:57.690Z,1.75
2022-09-13T10:55:30.268Z,1.60
2022-09-13T10:58:03.830Z,11.25
2022-09-13T11:00:56.041Z,4.80
2022-09-13T11:03:56.654Z,3.28
2022-09-13T11:06:50.967Z,3.15
2022-09-13T11:09:27.805Z,1.70
2022-09-13T11:12:13.872Z,1.50
2022-09-13T11:15:13.591Z,2.85
2022-09-13T11:17:59.162Z,2.15
2022-09-13T11:20:50.719Z,1.48
2022-09-13T11:23:36.841Z,1.50
2022-09-13T11:26:42.177Z,1.38
2022-09-13T11:29:22.379Z,1.60
2022-09-13T11:32:25.047Z,1.60
2022-09-13T11:35:07.179Z,1.63
2022-09-13T11:37:46.335Z,2.08
2022-09-13T11:40:32.109Z,1.73
2022-09-13T11:43:36.270Z,1.50
2022-09-13T11:46:09.590Z,1.10
2022-09-13T11:49:21.260Z,1.08
2022-09-13T11:52:15.197Z,1.45
2022-09-13T11:55:11.429Z,1.58
2022-09-13T11:57:44.364Z,1.48
2022-09-13T12:00:34.694Z,1.25
2022-09-13T12:03:25.043Z,1.67
2022-09-13T12:05:57.827Z,1.67
2022-09-13T12:08:40.959Z,1.27
2022-09-13T12:11:25.122Z,1.52
2022-09-13T12:14:15.614Z,1.42
2022-09-13T12:16:57.409Z,1.30
2022-09-13T12:19:30.560Z,1.50
2022-09-13T12:22:00.960Z,1.50
2022-09-13T12:24:30.943Z,1.52
2022-09-13T12:27:10.491Z,1.38
2022-09-13T12:29:45.373Z,1.30
2022-09-13T12:32:14.360Z,0.95
2022-09-13T12:34:56.485Z,1.90
2022-09-13T12:37:41.774Z,5.53
2022-09-13T12:40:38.243Z,2.30
2022-09-13T12:43:44.249Z,1.13
2022-09-13T12:46:11.483Z,1.70
2022-09-13T12:48:53.858Z,3.05
2022-09-13T12:52:02.718Z,2.05
2022-09-13T12:55:05.395Z,1.60
2022-09-13T12:57:45.102Z,1.60
2022-09-13T13:00:25.880Z,1.50
2022-09-13T13:03:11.773Z,1.60
2022-09-13T13:05:48.710Z,1.33
2022-09-13T13:08:22.074Z,1.50
2022-09-13T13:11:11.737Z,2.03
2022-09-13T13:13:53.563Z,1.55
2022-09-13T13:16:25.942Z,1.60
2022-09-13T13:18:55.556Z,1.30
2022-09-13T13:21:23.179Z,1.27
2022-09-13T13:24:16.438Z,1.45
2022-09-13T13:26:48.477Z,1.20
2022-09-13T13:29:30.155Z,1.05
2022-09-13T13:31:57.394Z,1.20
2022-09-13T13:34:29.278Z,1.35
2022-09-13T13:37:07.188Z,1.38
2022-09-13T13:39:36.534Z,1.52
2022-09-13T13:42:26.811Z,1.20
2022-09-13T13:44:54.009Z,1.85
2022-09-13T13:47:21.257Z,1.35
2022-09-13T13:49:52.623Z,1.77
2022-09-13T13:52:22.498Z,1.20
2022-09-13T13:54:57.352Z,1.30
2022-09-13T13:57:35.590Z,1.40
2022-09-13T14:00:26.757Z,1.52
2022-09-13T14:03:22.774Z,1.00
2022-09-13T14:06:07.794Z,1.27
2022-09-13T14:08:55.777Z,1.27
2022-09-13T14:12:10.352Z,1.50
2022-09-13T14:14:51.348Z,1.10
2022-09-13T14:17:36.732Z,1.42
2022-09-13T14:20:12.079Z,1.15
2022-09-13T14:22:40.432Z,1.17
2022-09-13T14:25:19.591Z,1.17
2022-09-13T14:27:48.550Z,1.08
2022-09-13T14:30:22.556Z,1.00
2022-09-13T14:32:53.149Z,1.48
2022-09-13T14:35:31.811Z,1.30
2022-09-13T14:38:25.229Z,1.23
2022-09-13T14:40:57.897Z,1.02
2022-09-13T14:43:27.210Z,1.20
2022-09-13T14:46:02.783Z,1.05
2022-09-13T14:48:40.090Z,1.63
2022-09-13T14:51:40.192Z,1.23
2022-09-13T14:54:18.322Z,1.00
2022-09-13T14:56:52.972Z,1.23
2022-09-13T14:59:34.308Z,0.93
2022-09-13T15:02:30.698Z,1.02
2022-09-13T15:05:00.655Z,1.23
2022-09-13T15:07:31.746Z,1.00
2022-09-13T15:10:10.766Z,1.10
2022-09-13T15:12:49.658Z,1.33
2022-09-13T15:15:19.886Z,1.30
2022-09-13T15:17:58.858Z,1.30
2022-09-13T15:20:29.281Z,1.20
2022-09-13T15:22:57.036Z,1.38
2022-09-13T15:25:29.789Z,1.08
2022-09-13T15:27:57.992Z,1.42
2022-09-13T15:30:30.621Z,1.30
2022-09-13T15:33:10.043Z,1.35
2022-09-13T15:35:40.023Z,1.45
2022-09-13T15:38:25.419Z,1.92
2022-09-13T15:41:10.608Z,2.50
2022-09-13T15:43:37.911Z,1.90
2022-09-13T15:46:06.153Z,2.50
2022-09-13T15:48:35.466Z,1.98
2022-09-13T15:51:05.529Z,1.67
2022-09-13T15:53:34.011Z,1.27
2022-09-13T15:56:02.665Z,1.30
2022-09-13T15:58:30.525Z,1.73
2022-09-13T16:00:57.776Z,2.35
2022-09-13T16:03:25.206Z,1.83
2022-09-13T16:05:53.470Z,1.40
2022-09-13T16:08:21.064Z,1.75
2022-09-13T16:10:48.279Z,1.58
2022-09-13T16:13:15.553Z,1.30
2022-09-13T16:15:42.960Z,1.85
2022-09-13T16:18:10.918Z,1.67
2022-09-13T16:20:38.151Z,1.70
2022-09-13T16:23:05.327Z,1.70
2022-09-13T16:25:32.934Z,1.38
2022-09-13T16:28:00.490Z,1.55
2022-09-13T16:30:30.401Z,1.80
2022-09-13T16:32:57.933Z,1.63
2022-09-13T16:35:30.371Z,1.73
2022-09-13T16:37:58.082Z,1.95
2022-09-13T16:40:25.354Z,1.73
2022-09-13T16:42:52.609Z,3.55
2022-09-13T16:45:20.160Z,2.70
2022-09-13T16:47:47.570Z,2.10
2022-09-13T16:50:15.858Z,2.00
2022-09-13T16:52:43.154Z,2.35
2022-09-13T16:55:10.540Z,2.60
2022-09-13T16:57:37.757Z,2.35
2022-09-13T17:00:10.143Z,3.53
2022-09-13T17:02:38.791Z,5.13
2022-09-13T17:05:08.595Z,9.70
2022-09-13T17:07:36.921Z,9.18
2022-09-13T17:10:06.377Z,11.60
2022-09-13T17:12:34.674Z,8.05
2022-09-13T17:15:01.967Z,5.22
2022-09-13T17:17:33.726Z,5.18
2022-09-13T17:20:03.456Z,5.10
2022-09-13T17:22:31.464Z,4.60
2022-09-13T17:24:58.722Z,3.17
2022-09-13T17:27:25.908Z,3.25
2022-09-13T17:29:53.682Z,3.10
2022-09-13T17:32:20.876Z,3.35
2022-09-13T17:34:48.541Z,3.00
2022-09-13T17:37:15.783Z,3.25
2022-09-13T17:39:43.033Z,3.30
2022-09-13T17:42:10.518Z,3.10
2022-09-13T17:44:37.836Z,3.88
2022-09-13T17:47:06.420Z,3.75
2022-09-13T17:49:33.715Z,3.58
2022-09-13T17:52:01.539Z,2.97
2022-09-13T17:54:28.781Z,2.95
2022-09-13T17:56:56.174Z,3.33
2022-09-13T17:59:23.459Z,3.03
2022-09-13T18:01:53.163Z,3.33
2022-09-13T18:04:22.652Z,3.80
2022-09-13T18:06:53.717Z,2.80
2022-09-13T18:09:21.380Z,2.92
2022-09-13T18:11:49.112Z,2.70
2022-09-13T18:14:18.038Z,2.67
2022-09-13T18:16:45.805Z,2.92
2022-09-13T18:19:13.626Z,3.33
2022-09-13T18:21:41.023Z,2.63
2022-09-13T18:24:08.437Z,2.47
2022-09-13T18:26:35.870Z,3.30
2022-09-13T18:29:05.706Z,2.95
2022-09-13T18:31:34.747Z,3.58
2022-09-13T18:34:08.367Z,3.75
2022-09-13T18:36:37.221Z,3.88
2022-09-13T18:39:06.446Z,3.83
2022-09-13T18:41:36.426Z,3.78
2022-09-13T18:44:06.796Z,3.47
2022-09-13T18:46:35.240Z,3.05
2022-09-13T18:49:03.354Z,3.25
2022-09-13T18:51:38.766Z,2.72
2022-09-13T18:54:08.362Z,3.15
2022-09-13T18:56:36.252Z,3.58
2022-09-13T18:59:06.392Z,3.17
2022-09-13T19:01:44.187Z,3.25
2022-09-13T19:04:15.288Z,2.78
2022-09-13T19:06:48.226Z,3.83
2022-09-13T19:09:15.926Z,3.40
2022-09-13T19:11:48.973Z,3.47
2022-09-13T19:14:25.329Z,3.58
2022-09-13T19:16:54.469Z,3.45
2022-09-13T19:19:22.431Z,3.58
2022-09-13T19:21:49.918Z,3.50
2022-09-13T19:24:20.651Z,3.42
2022-09-13T19:26:51.205Z,3.28
2022-09-13T19:29:21.656Z,3.35
2022-09-13T19:31:49.878Z,3.40
2022-09-13T19:34:19.365Z,3.50
2022-09-13T19:36:48.867Z,3.80
2022-09-13T19:39:16.450Z,3.65
2022-09-13T19:41:43.869Z,4.40
2022-09-13T19:44:12.975Z,3.60
2022-09-13T19:46:41.208Z,4.18
2022-09-13T19:49:12.110Z,4.45
2022-09-13T19:51:40.826Z,3.55
2022-09-13T19:54:11.982Z,4.07
2022-09-13T19:56:42.611Z,4.25
2022-09-13T19:59:13.633Z,4.65
2022-09-13T20:01:43.776Z,4.82
2022-09-13T20:04:14.419Z,5.55
2022-09-13T20:06:46.887Z,4.07
2022-09-13T20:09:16.478Z,4.60
2022-09-13T20:11:48.613Z,3.75
2022-09-13T20:14:18.741Z,3.80
2022-09-13T20:16:46.753Z,4.25
2022-09-13T20:19:39.349Z,4.40
2022-09-13T20:22:07.983Z,4.10
2022-09-13T20:24:35.497Z,4.68
2022-09-13T20:27:03.040Z,4.50
2022-09-13T20:29:32.213Z,3.72
2022-09-13T20:31:59.898Z,3.60
2022-09-13T20:34:28.060Z,3.83
2022-09-13T20:36:55.422Z,3.10
2022-09-13T20:39:22.919Z,3.60
2022-09-13T20:41:50.340Z,2.80
2022-09-13T20:44:17.815Z,2.92
2022-09-13T20:46:45.249Z,3.38
2022-09-13T20:49:12.731Z,3.40
2022-09-13T20:51:40.719Z,3.35
2022-09-13T20:54:10.229Z,3.53
2022-09-13T20:56:37.447Z,3.00
2022-09-13T20:59:05.464Z,3.42
2022-09-13T21:01:33.584Z,3.28
2022-09-13T21:04:01.722Z,3.88
2022-09-13T21:06:31.263Z,3.75
2022-09-13T21:08:59.778Z,3.30
2022-09-13T21:11:34.712Z,3.25
2022-09-13T21:14:06.318Z,3.50
2022-09-13T21:16:39.314Z,3.58
2022-09-13T21:19:07.857Z,3.38
2022-09-13T21:21:39.871Z,3.45
2022-09-13T21:24:11.703Z,3.28
2022-09-13T21:26:42.158Z,3.65
2022-09-13T21:29:11.245Z,3.00
2022-09-13T21:31:39.371Z,3.08
2022-09-13T21:34:17.846Z,3.70
2022-09-13T21:36:46.624Z,3.47
2022-09-13T21:39:14.823Z,3.38
2022-09-13T21:41:42.959Z,3.25
2022-09-13T21:44:10.740Z,3.28
2022-09-13T21:46:39.381Z,3.72
2022-09-13T21:49:10.113Z,4.05
2022-09-13T21:51:43.256Z,3.38
2022-09-13T21:54:14.150Z,3.35
2022-09-13T21:56:43.912Z,4.15
2022-09-13T21:59:16.277Z,3.53
2022-09-13T22:01:46.898Z,4.05
2022-09-13T22:04:20.289Z,3.50
2022-09-13T22:06:51.397Z,2.90
2022-09-13T22:09:19.688Z,3.10
2022-09-13T22:11:49.442Z,3.30
2022-09-13T22:14:19.770Z,3.45
2022-09-13T22:16:47.480Z,3.30
2022-09-13T22:19:23.827Z,2.92
2022-09-13T22:21:55.335Z,3.42
2022-09-13T22:24:24.869Z,4.28
2022-09-13T22:26:54.048Z,3.53
2022-09-13T22:29:22.158Z,4.10
2022-09-13T22:31:50.679Z,3.47
2022-09-13T22:34:20.811Z,3.97
2022-09-13T22:36:48.154Z,3.60
2022-09-13T22:39:16.663Z,3.05
2022-09-13T22:41:44.945Z,2.40
2022-09-13T22:44:12.388Z,2.85
2022-09-13T22:46:42.518Z,2.95
2022-09-13T22:49:15.196Z,2.83
2022-09-13T22:51:45.027Z,2.65
2022-09-13T22:54:13.527Z,3.28
2022-09-13T22:56:41.277Z,3.08
2022-09-13T22:59:15.727Z,3.22
2022-09-13T23:01:43.454Z,2.95
2022-09-13T23:04:11.085Z,2.83
2022-09-13T23:06:39.157Z,2.88
2022-09-13T23:09:08.253Z,3.17
2022-09-13T23:11:37.922Z,3.10
2022-09-13T23:14:10.914Z,2.95
2022-09-13T23:16:50.219Z,3.15
2022-09-13T23:19:20.405Z,2.85
2022-09-13T23:21:47.888Z,2.53
2022-09-13T23:24:17.359Z,2.38
2022-09-13T23:26:45.643Z,2.72
2022-09-13T23:29:18.808Z,3.08
2022-09-13T23:31:47.098Z,2.65
2022-09-13T23:34:15.353Z,2.97
2022-09-13T23:36:44.369Z,3.25
2022-09-13T23:39:18.010Z,3.03
2022-09-13T23:41:47.569Z,3.30
2022-09-13T23:44:15.393Z,3.08
2022-09-13T23:46:43.090Z,4.05
2022-09-13T23:49:10.354Z,4.03
2022-09-13T23:51:37.622Z,4.15
2022-09-13T23:54:05.022Z,4.60
2022-09-13T23:56:33.447Z,4.07
2022-09-13T23:59:02.222Z,5.45
